Angus — WDH9595 — position and weather

sailwx.info

Track history (hours):
 
Tides and Currents Weather Stations Pressure Air Temp Water Temp Dewpoint Dewpoint Depression Visibility Wind Speed Wind Dir Waves Ship Positions

Angus

Owner: SPS New England, Salisbury, MA. More information available from US FCC via Universal Licensing System and Coast Guard Vessel Documentation Center.

Last reported at 2018-Jul-20 03:11 UTC. Time now 2018-Jul-21 09:22 UTC.
Position N 42°23' W 071°03'.

Length 17 m; draft 3 m.

Type: Towing. MMSI: 367669640.

Date/timePositionNaut miles runAvg speedWind from/ knotsBaromVisibWave heightAir tempDewpointWater temp
2018-Jul-20 03:11N 42°23' W 071°03'1 4.9
2018-Jul-20 03:01N 42°23' W 071°03'4 8.1
2018-Jul-20 02:29N 42°19' W 070°59'4 8.6
2018-Jul-20 02:00N 42°16' W 070°56'2 3.4
2018-Jul-20 01:29N 42°15' W 070°58'3 5.6
2018-Jul-20 01:00N 42°17' W 070°56'3 5.2
2018-Jul-20 00:30N 42°19' W 070°54'3 6.0
2018-Jul-20 00:00N 42°19' W 070°50'4 6.9
2018-Jul-19 23:29N 42°17' W 070°46'3 6.7
2018-Jul-19 23:01N 42°15' W 070°43'4 7.0
2018-Jul-19 22:30N 42°12' W 070°41'4 7.3
2018-Jul-19 22:01N 42°08' W 070°39'3 7.0
2018-Jul-19 21:31N 42°05' W 070°38'0 0.8
2018-Jul-19 20:57N 42°05' W 070°39'0 0.0
2018-Jul-19 20:30N 42°05' W 070°39'0 0.0
2018-Jul-19 20:00N 42°05' W 070°39'0 0.0
2018-Jul-19 19:30N 42°05' W 070°39'0 0.6
2018-Jul-19 19:01N 42°04' W 070°38'0 0.3
2018-Jul-19 18:30N 42°04' W 070°38'1 3.0
2018-Jul-19 18:00N 42°06' W 070°38'3 5.8
2018-Jul-19 17:30N 42°09' W 070°40'3 5.7
2018-Jul-19 17:00N 42°11' W 070°41'3 5.8
2018-Jul-19 16:30N 42°14' W 070°42'3 5.8
2018-Jul-19 16:00N 42°16' W 070°45'3 5.5
2018-Jul-19 15:30N 42°18' W 070°48'3 5.6
2018-Jul-19 14:58N 42°19' W 070°52'5 5.3
2018-Jul-19 14:00N 42°15' W 070°57'1 2.4
2018-Jul-19 13:27N 42°15' W 070°58'3 5.4
2018-Jul-19 12:59N 42°17' W 070°57'4 8.1
2018-Jul-19 12:30N 42°20' W 070°60'4 7.6
2018-Jul-19 12:00N 42°23' W 071°03'0 0.9
2018-Jul-19 11:30N 42°23' W 071°03'0 0.0
2018-Jul-19 11:00N 42°23' W 071°03'0 0.0
2018-Jul-19 10:29N 42°23' W 071°03'0 0.0
2018-Jul-19 10:00N 42°23' W 071°03'  
Track history (hours):
 
Tides and Currents Weather Stations Pressure Air Temp Water Temp Dewpoint Dewpoint Depression Visibility Wind Speed Wind Dir Waves Ship Positions

Angus

Owner: SPS New England, Salisbury, MA. More information available from US FCC via Universal Licensing System and Coast Guard Vessel Documentation Center.

Last reported at 2018-Jul-20 03:11 UTC. Time now 2018-Jul-21 09:22 UTC.
Position N 42°23' W 071°03'.

Length 17 m; draft 3 m.

Type: Towing. MMSI: 367669640.

Date/timePositionNaut miles runAvg speedWind from/ knotsBaromVisibWave heightAir tempDewpointWater temp
2018-Jul-20 03:11N 42°23' W 071°03'1 4.9
2018-Jul-20 03:01N 42°23' W 071°03'4 8.1
2018-Jul-20 02:29N 42°19' W 070°59'4 8.6
2018-Jul-20 02:00N 42°16' W 070°56'2 3.4
2018-Jul-20 01:29N 42°15' W 070°58'3 5.6
2018-Jul-20 01:00N 42°17' W 070°56'3 5.2
2018-Jul-20 00:30N 42°19' W 070°54'3 6.0
2018-Jul-20 00:00N 42°19' W 070°50'4 6.9
2018-Jul-19 23:29N 42°17' W 070°46'3 6.7
2018-Jul-19 23:01N 42°15' W 070°43'4 7.0
2018-Jul-19 22:30N 42°12' W 070°41'4 7.3
2018-Jul-19 22:01N 42°08' W 070°39'3 7.0
2018-Jul-19 21:31N 42°05' W 070°38'0 0.8
2018-Jul-19 20:57N 42°05' W 070°39'0 0.0
2018-Jul-19 20:30N 42°05' W 070°39'0 0.0
2018-Jul-19 20:00N 42°05' W 070°39'0 0.0
2018-Jul-19 19:30N 42°05' W 070°39'0 0.6
2018-Jul-19 19:01N 42°04' W 070°38'0 0.3
2018-Jul-19 18:30N 42°04' W 070°38'1 3.0
2018-Jul-19 18:00N 42°06' W 070°38'3 5.8
2018-Jul-19 17:30N 42°09' W 070°40'3 5.7
2018-Jul-19 17:00N 42°11' W 070°41'3 5.8
2018-Jul-19 16:30N 42°14' W 070°42'3 5.8
2018-Jul-19 16:00N 42°16' W 070°45'3 5.5
2018-Jul-19 15:30N 42°18' W 070°48'3 5.6
2018-Jul-19 14:58N 42°19' W 070°52'5 5.3
2018-Jul-19 14:00N 42°15' W 070°57'1 2.4
2018-Jul-19 13:27N 42°15' W 070°58'3 5.4
2018-Jul-19 12:59N 42°17' W 070°57'4 8.1
2018-Jul-19 12:30N 42°20' W 070°60'4 7.6
2018-Jul-19 12:00N 42°23' W 071°03'0 0.9
2018-Jul-19 11:30N 42°23' W 071°03'0 0.0
2018-Jul-19 11:00N 42°23' W 071°03'0 0.0
2018-Jul-19 10:29N 42°23' W 071°03'0 0.0
2018-Jul-19 10:00N 42°23' W 071°03'  

Dump ship's entire track history